sensor_id;sensor_type;location;lat;lon;timestamp;pressure;altitude;pressure_sealevel;temperature;humidity
7376;BME280;3728;42.266;24.944;2024-02-21T00:00:41;100319.66;;;8.13;96.57
7376;BME280;3728;42.266;24.944;2024-02-21T00:03:08;100322.56;;;7.82;96.34
7376;BME280;3728;42.266;24.944;2024-02-21T00:05:37;100321.50;;;7.57;98.20
7376;BME280;3728;42.266;24.944;2024-02-21T00:08:04;100326.44;;;7.34;99.82
7376;BME280;3728;42.266;24.944;2024-02-21T00:10:32;100326.69;;;7.27;100.00
7376;BME280;3728;42.266;24.944;2024-02-21T00:12:59;100329.81;;;7.49;100.00
7376;BME280;3728;42.266;24.944;2024-02-21T00:15:27;100333.22;;;7.70;99.27
7376;BME280;3728;42.266;24.944;2024-02-21T00:17:54;100326.97;;;7.41;99.84
7376;BME280;3728;42.266;24.944;2024-02-21T00:20:21;100328.25;;;7.33;100.00
7376;BME280;3728;42.266;24.944;2024-02-21T00:22:52;100326.69;;;7.37;100.00
7376;BME280;3728;42.266;24.944;2024-02-21T00:25:19;100325.38;;;7.40;100.00
7376;BME280;3728;42.266;24.944;2024-02-21T00:27:46;100329.56;;;7.36;100.00
7376;BME280;3728;42.266;24.944;2024-02-21T00:30:13;100336.56;;;7.30;100.00
7376;BME280;3728;42.266;24.944;2024-02-21T00:32:40;100325.44;;;7.65;100.00
7376;BME280;3728;42.266;24.944;2024-02-21T00:35:07;100322.81;;;7.55;99.31
7376;BME280;3728;42.266;24.944;2024-02-21T00:37:35;100326.44;;;7.34;100.00
7376;BME280;3728;42.266;24.944;2024-02-21T00:40:02;100312.03;;;7.01;100.00
7376;BME280;3728;42.266;24.944;2024-02-21T00:42:29;100305.75;;;7.02;100.00
7376;BME280;3728;42.266;24.944;2024-02-21T00:44:56;100318.22;;;6.85;100.00
7376;BME280;3728;42.266;24.944;2024-02-21T00:47:23;100313.81;;;6.90;100.00
7376;BME280;3728;42.266;24.944;2024-02-21T00:49:50;100314.13;;;6.99;100.00
7376;BME280;3728;42.266;24.944;2024-02-21T00:52:17;100314.13;;;7.14;100.00
7376;BME280;3728;42.266;24.944;2024-02-21T00:54:44;100311.22;;;6.90;100.00
7376;BME280;3728;42.266;24.944;2024-02-21T00:57:20;100309.69;;;7.10;100.00
7376;BME280;3728;42.266;24.944;2024-02-21T00:59:46;100303.97;;;7.08;100.00
7376;BME280;3728;42.266;24.944;2024-02-21T01:02:13;100306.25;;;6.84;100.00
7376;BME280;3728;42.266;24.944;2024-02-21T01:04:41;100306.72;;;6.71;100.00
7376;BME280;3728;42.266;24.944;2024-02-21T01:07:11;100304.13;;;6.81;100.00
7376;BME280;3728;42.266;24.944;2024-02-21T01:09:38;100305.25;;;6.90;100.00
7376;BME280;3728;42.266;24.944;2024-02-21T01:12:05;100308.31;;;6.82;100.00
7376;BME280;3728;42.266;24.944;2024-02-21T01:14:32;100308.00;;;6.68;100.00
7376;BME280;3728;42.266;24.944;2024-02-21T01:16:59;100306.47;;;6.77;100.00
7376;BME280;3728;42.266;24.944;2024-02-21T01:19:26;100307.84;;;6.90;100.00
7376;BME280;3728;42.266;24.944;2024-02-21T01:21:53;100300.81;;;7.01;100.00
7376;BME280;3728;42.266;24.944;2024-02-21T01:24:20;100302.16;;;7.08;100.00
7376;BME280;3728;42.266;24.944;2024-02-21T01:26:48;100303.91;;;6.93;100.00
7376;BME280;3728;42.266;24.944;2024-02-21T01:29:15;100297.41;;;6.95;100.00
7376;BME280;3728;42.266;24.944;2024-02-21T01:31:42;100296.66;;;6.95;100.00
7376;BME280;3728;42.266;24.944;2024-02-21T01:34:09;100296.91;;;6.93;100.00
7376;BME280;3728;42.266;24.944;2024-02-21T01:36:36;100288.88;;;7.10;100.00
7376;BME280;3728;42.266;24.944;2024-02-21T01:39:03;100294.34;;;7.08;100.00
7376;BME280;3728;42.266;24.944;2024-02-21T01:41:30;100287.03;;;7.05;100.00
7376;BME280;3728;42.266;24.944;2024-02-21T01:43:58;100292.00;;;7.17;100.00
7376;BME280;3728;42.266;24.944;2024-02-21T01:46:25;100281.56;;;7.12;100.00
7376;BME280;3728;42.266;24.944;2024-02-21T01:48:57;100282.09;;;7.04;100.00
7376;BME280;3728;42.266;24.944;2024-02-21T01:51:25;100279.72;;;6.92;100.00
7376;BME280;3728;42.266;24.944;2024-02-21T01:53:53;100275.00;;;6.84;100.00
7376;BME280;3728;42.266;24.944;2024-02-21T01:56:22;100273.91;;;6.70;100.00
7376;BME280;3728;42.266;24.944;2024-02-21T01:58:51;100275.47;;;6.66;100.00
7376;BME280;3728;42.266;24.944;2024-02-21T02:01:18;100285.91;;;6.71;100.00
7376;BME280;3728;42.266;24.944;2024-02-21T02:03:48;100283.28;;;6.66;100.00
7376;BME280;3728;42.266;24.944;2024-02-21T02:06:16;100287.22;;;6.73;100.00
7376;BME280;3728;42.266;24.944;2024-02-21T02:08:44;100281.19;;;6.68;100.00
7376;BME280;3728;42.266;24.944;2024-02-21T02:11:13;100276.78;;;6.78;100.00
7376;BME280;3728;42.266;24.944;2024-02-21T02:13:41;100277.00;;;6.62;100.00
7376;BME280;3728;42.266;24.944;2024-02-21T02:16:08;100276.72;;;6.53;100.00
7376;BME280;3728;42.266;24.944;2024-02-21T02:18:35;100278.28;;;6.54;100.00
7376;BME280;3728;42.266;24.944;2024-02-21T02:21:05;100276.25;;;6.66;100.00
7376;BME280;3728;42.266;24.944;2024-02-21T02:23:38;100275.97;;;6.63;100.00
7376;BME280;3728;42.266;24.944;2024-02-21T02:26:07;100272.84;;;6.61;100.00
7376;BME280;3728;42.266;24.944;2024-02-21T02:28:35;100279.09;;;6.65;100.00
7376;BME280;3728;42.266;24.944;2024-02-21T02:31:04;100278.06;;;6.66;100.00
7376;BME280;3728;42.266;24.944;2024-02-21T02:33:32;100282.19;;;6.52;100.00
7376;BME280;3728;42.266;24.944;2024-02-21T02:35:59;100271.25;;;6.50;100.00
7376;BME280;3728;42.266;24.944;2024-02-21T02:38:26;100268.34;;;6.41;100.00
7376;BME280;3728;42.266;24.944;2024-02-21T02:40:53;100271.16;;;6.35;100.00
7376;BME280;3728;42.266;24.944;2024-02-21T02:43:20;100273.00;;;6.39;100.00
7376;BME280;3728;42.266;24.944;2024-02-21T02:45:47;100277.44;;;6.39;100.00
7376;BME280;3728;42.266;24.944;2024-02-21T02:48:14;100276.41;;;6.40;100.00
7376;BME280;3728;42.266;24.944;2024-02-21T02:50:41;100271.44;;;6.33;100.00
7376;BME280;3728;42.266;24.944;2024-02-21T02:53:08;100271.63;;;6.27;100.00
7376;BME280;3728;42.266;24.944;2024-02-21T02:55:35;100266.69;;;6.25;100.00
7376;BME280;3728;42.266;24.944;2024-02-21T02:58:03;100271.56;;;6.11;100.00
7376;BME280;3728;42.266;24.944;2024-02-21T03:00:30;100274.63;;;6.03;100.00
7376;BME280;3728;42.266;24.944;2024-02-21T03:02:57;100278.28;;;6.02;100.00
7376;BME280;3728;42.266;24.944;2024-02-21T03:05:24;100278.22;;;5.92;100.00
7376;BME280;3728;42.266;24.944;2024-02-21T03:07:51;100284.69;;;5.90;100.00
7376;BME280;3728;42.266;24.944;2024-02-21T03:10:18;100283.31;;;5.82;100.00
7376;BME280;3728;42.266;24.944;2024-02-21T03:12:46;100277.31;;;5.82;100.00
7376;BME280;3728;42.266;24.944;2024-02-21T03:15:14;100282.38;;;5.93;100.00
7376;BME280;3728;42.266;24.944;2024-02-21T03:17:41;100279.75;;;5.88;100.00
7376;BME280;3728;42.266;24.944;2024-02-21T03:20:09;100270.44;;;5.97;100.00
7376;BME280;3728;42.266;24.944;2024-02-21T03:22:39;100265.00;;;5.99;100.00
7376;BME280;3728;42.266;24.944;2024-02-21T03:25:08;100268.59;;;5.93;100.00
7376;BME280;3728;42.266;24.944;2024-02-21T03:27:37;100267.50;;;5.89;100.00
7376;BME280;3728;42.266;24.944;2024-02-21T03:30:04;100263.47;;;5.71;100.00
7376;BME280;3728;42.266;24.944;2024-02-21T03:32:32;100257.63;;;5.54;100.00
7376;BME280;3728;42.266;24.944;2024-02-21T03:34:59;100263.28;;;5.46;100.00
7376;BME280;3728;42.266;24.944;2024-02-21T03:37:26;100259.28;;;5.33;100.00
7376;BME280;3728;42.266;24.944;2024-02-21T03:39:53;100263.78;;;5.43;100.00
7376;BME280;3728;42.266;24.944;2024-02-21T03:42:20;100263.09;;;5.52;100.00
7376;BME280;3728;42.266;24.944;2024-02-21T03:44:47;100261.06;;;5.60;100.00
7376;BME280;3728;42.266;24.944;2024-02-21T03:47:14;100261.59;;;5.62;100.00
7376;BME280;3728;42.266;24.944;2024-02-21T03:49:41;100266.56;;;5.68;100.00
7376;BME280;3728;42.266;24.944;2024-02-21T03:52:09;100264.75;;;5.69;100.00
7376;BME280;3728;42.266;24.944;2024-02-21T03:54:37;100268.22;;;5.79;100.00
7376;BME280;3728;42.266;24.944;2024-02-21T03:57:05;100270.75;;;5.69;100.00
7376;BME280;3728;42.266;24.944;2024-02-21T03:59:32;100265.81;;;5.73;100.00
7376;BME280;3728;42.266;24.944;2024-02-21T04:01:59;100274.69;;;5.77;100.00
7376;BME280;3728;42.266;24.944;2024-02-21T04:04:27;100275.47;;;5.77;100.00
7376;BME280;3728;42.266;24.944;2024-02-21T04:06:55;100279.75;;;5.88;100.00
7376;BME280;3728;42.266;24.944;2024-02-21T04:09:22;100286.28;;;5.96;100.00
7376;BME280;3728;42.266;24.944;2024-02-21T04:11:52;100282.66;;;5.97;100.00
7376;BME280;3728;42.266;24.944;2024-02-21T04:14:20;100283.91;;;5.89;100.00
7376;BME280;3728;42.266;24.944;2024-02-21T04:16:46;100282.84;;;5.85;100.00
7376;BME280;3728;42.266;24.944;2024-02-21T04:19:15;100284.72;;;5.95;100.00
7376;BME280;3728;42.266;24.944;2024-02-21T04:21:42;100280.19;;;5.80;100.00
7376;BME280;3728;42.266;24.944;2024-02-21T04:24:10;100281.84;;;5.91;100.00
7376;BME280;3728;42.266;24.944;2024-02-21T04:26:37;100284.66;;;5.85;100.00
7376;BME280;3728;42.266;24.944;2024-02-21T04:29:05;100276.97;;;6.00;100.00
7376;BME280;3728;42.266;24.944;2024-02-21T04:31:32;100284.66;;;5.85;100.00
7376;BME280;3728;42.266;24.944;2024-02-21T04:34:00;100291.06;;;5.77;100.00
7376;BME280;3728;42.266;24.944;2024-02-21T04:36:27;100292.06;;;5.71;100.00
7376;BME280;3728;42.266;24.944;2024-02-21T04:38:54;100301.88;;;5.91;100.00
7376;BME280;3728;42.266;24.944;2024-02-21T04:41:21;100296.25;;;5.72;100.00
7376;BME280;3728;42.266;24.944;2024-02-21T04:43:48;100297.88;;;5.51;100.00
7376;BME280;3728;42.266;24.944;2024-02-21T04:46:18;100286.16;;;5.49;100.00
7376;BME280;3728;42.266;24.944;2024-02-21T04:48:45;100296.22;;;5.40;100.00
7376;BME280;3728;42.266;24.944;2024-02-21T04:51:12;100300.56;;;5.35;100.00
7376;BME280;3728;42.266;24.944;2024-02-21T04:53:40;100300.81;;;5.60;97.05
7376;BME280;3728;42.266;24.944;2024-02-21T04:56:07;100305.94;;;5.23;98.36
7376;BME280;3728;42.266;24.944;2024-02-21T04:58:38;100303.34;;;5.02;100.00
7376;BME280;3728;42.266;24.944;2024-02-21T05:01:05;100310.63;;;5.00;100.00
7376;BME280;3728;42.266;24.944;2024-02-21T05:03:33;100303.22;;;4.87;100.00
7376;BME280;3728;42.266;24.944;2024-02-21T05:06:00;100298.50;;;4.83;100.00
7376;BME280;3728;42.266;24.944;2024-02-21T05:08:27;100305.81;;;4.87;100.00
7376;BME280;3728;42.266;24.944;2024-02-21T05:10:54;100307.34;;;4.88;100.00
7376;BME280;3728;42.266;24.944;2024-02-21T05:13:22;100309.06;;;4.77;100.00
7376;BME280;3728;42.266;24.944;2024-02-21T05:15:52;100317.25;;;4.69;100.00
7376;BME280;3728;42.266;24.944;2024-02-21T05:18:22;100311.97;;;4.59;100.00
7376;BME280;3728;42.266;24.944;2024-02-21T05:20:49;100311.72;;;4.60;100.00
7376;BME280;3728;42.266;24.944;2024-02-21T05:23:16;100323.19;;;4.64;100.00
7376;BME280;3728;42.266;24.944;2024-02-21T05:25:43;100324.56;;;4.72;100.00
7376;BME280;3728;42.266;24.944;2024-02-21T05:28:10;100322.03;;;4.55;100.00
7376;BME280;3728;42.266;24.944;2024-02-21T05:30:37;100327.41;;;4.49;100.00
7376;BME280;3728;42.266;24.944;2024-02-21T05:33:05;100323.97;;;4.65;100.00
7376;BME280;3728;42.266;24.944;2024-02-21T05:35:34;100332.59;;;4.70;100.00
7376;BME280;3728;42.266;24.944;2024-02-21T05:38:01;100329.09;;;4.81;100.00
7376;BME280;3728;42.266;24.944;2024-02-21T05:40:31;100329.69;;;4.89;100.00
7376;BME280;3728;42.266;24.944;2024-02-21T05:42:57;100327.75;;;5.01;100.00
7376;BME280;3728;42.266;24.944;2024-02-21T05:45:24;100328.84;;;5.05;100.00
7376;BME280;3728;42.266;24.944;2024-02-21T05:47:51;100336.28;;;5.18;100.00
7376;BME280;3728;42.266;24.944;2024-02-21T05:50:18;100338.88;;;5.18;100.00
7376;BME280;3728;42.266;24.944;2024-02-21T05:52:48;100343.59;;;5.26;100.00
7376;BME280;3728;42.266;24.944;2024-02-21T05:55:15;100351.50;;;5.36;100.00
7376;BME280;3728;42.266;24.944;2024-02-21T05:57:42;100346.06;;;5.37;100.00
7376;BME280;3728;42.266;24.944;2024-02-21T06:00:09;100348.28;;;5.50;100.00
7376;BME280;3728;42.266;24.944;2024-02-21T06:02:40;100351.22;;;5.59;100.00
7376;BME280;3728;42.266;24.944;2024-02-21T06:05:07;100349.25;;;5.71;100.00
7376;BME280;3728;42.266;24.944;2024-02-21T06:07:35;100358.41;;;5.79;100.00
7376;BME280;3728;42.266;24.944;2024-02-21T06:10:02;100360.13;;;5.95;100.00
7376;BME280;3728;42.266;24.944;2024-02-21T06:12:30;100362.72;;;5.95;98.56
7376;BME280;3728;42.266;24.944;2024-02-21T06:14:57;100369.16;;;6.19;97.94
7376;BME280;3728;42.266;24.944;2024-02-21T06:17:24;100367.31;;;6.19;97.23
7376;BME280;3728;42.266;24.944;2024-02-21T06:19:51;100363.91;;;6.14;97.66
7376;BME280;3728;42.266;24.944;2024-02-21T06:22:18;100367.47;;;6.08;99.11
7376;BME280;3728;42.266;24.944;2024-02-21T06:24:45;100370.66;;;6.10;100.00
7376;BME280;3728;42.266;24.944;2024-02-21T06:27:12;100375.25;;;6.40;99.03
7376;BME280;3728;42.266;24.944;2024-02-21T06:29:41;100376.09;;;6.45;96.35
7376;BME280;3728;42.266;24.944;2024-02-21T06:32:08;100379.97;;;6.43;97.56
7376;BME280;3728;42.266;24.944;2024-02-21T06:34:35;100382.56;;;6.48;98.21
7376;BME280;3728;42.266;24.944;2024-02-21T06:37:02;100384.47;;;6.57;98.66
7376;BME280;3728;42.266;24.944;2024-02-21T06:39:30;100386.66;;;6.75;98.42
7376;BME280;3728;42.266;24.944;2024-02-21T06:41:57;100380.25;;;6.98;97.08
7376;BME280;3728;42.266;24.944;2024-02-21T06:44:29;100382.63;;;7.10;96.08
7376;BME280;3728;42.266;24.944;2024-02-21T06:46:57;100382.16;;;7.28;95.58
7376;BME280;3728;42.266;24.944;2024-02-21T06:49:26;100387.69;;;7.41;94.13
7376;BME280;3728;42.266;24.944;2024-02-21T06:51:53;100382.47;;;7.46;93.38
7376;BME280;3728;42.266;24.944;2024-02-21T06:54:20;100388.50;;;7.57;92.05
7376;BME280;3728;42.266;24.944;2024-02-21T06:56:47;100383.53;;;7.66;92.09
7376;BME280;3728;42.266;24.944;2024-02-21T06:59:14;100385.91;;;7.82;90.81
7376;BME280;3728;42.266;24.944;2024-02-21T07:01:48;100386.97;;;7.86;90.76
7376;BME280;3728;42.266;24.944;2024-02-21T07:04:15;100387.22;;;8.00;90.44
7376;BME280;3728;42.266;24.944;2024-02-21T07:06:43;100390.34;;;8.12;90.70
7376;BME280;3728;42.266;24.944;2024-02-21T07:09:10;100390.59;;;8.46;89.82
7376;BME280;3728;42.266;24.944;2024-02-21T07:11:37;100388.22;;;8.59;89.18
7376;BME280;3728;42.266;24.944;2024-02-21T07:14:04;100386.38;;;8.60;88.88
7376;BME280;3728;42.266;24.944;2024-02-21T07:16:31;100394.69;;;8.82;88.97
7376;BME280;3728;42.266;24.944;2024-02-21T07:19:00;100389.16;;;8.88;88.61
7376;BME280;3728;42.266;24.944;2024-02-21T07:21:27;100397.50;;;9.01;89.14
7376;BME280;3728;42.266;24.944;2024-02-21T07:23:54;100390.63;;;9.20;87.91
7376;BME280;3728;42.266;24.944;2024-02-21T07:26:21;100391.09;;;9.32;87.07
7376;BME280;3728;42.266;24.944;2024-02-21T07:28:49;100393.13;;;9.40;87.20
7376;BME280;3728;42.266;24.944;2024-02-21T07:31:16;100392.28;;;9.49;86.68
7376;BME280;3728;42.266;24.944;2024-02-21T07:33:44;100399.53;;;9.62;86.94
7376;BME280;3728;42.266;24.944;2024-02-21T07:36:11;100395.75;;;9.79;87.49
7376;BME280;3728;42.266;24.944;2024-02-21T07:38:38;100391.94;;;10.00;86.90
7376;BME280;3728;42.266;24.944;2024-02-21T07:41:05;100398.94;;;10.09;86.43
7376;BME280;3728;42.266;24.944;2024-02-21T07:43:33;100397.72;;;10.30;85.07
7376;BME280;3728;42.266;24.944;2024-02-21T07:46:00;100395.00;;;10.41;84.16
7376;BME280;3728;42.266;24.944;2024-02-21T07:48:27;100404.81;;;10.54;84.16
7376;BME280;3728;42.266;24.944;2024-02-21T07:50:56;100397.56;;;10.93;80.91
7376;BME280;3728;42.266;24.944;2024-02-21T07:53:23;100402.00;;;10.74;81.97
7376;BME280;3728;42.266;24.944;2024-02-21T07:55:50;100411.41;;;10.75;83.64
7376;BME280;3728;42.266;24.944;2024-02-21T07:58:18;100410.69;;;10.93;82.56
7376;BME280;3728;42.266;24.944;2024-02-21T08:00:45;100416.13;;;11.20;79.99
7376;BME280;3728;42.266;24.944;2024-02-21T08:03:12;100408.69;;;11.09;79.73
7376;BME280;3728;42.266;24.944;2024-02-21T08:05:42;100409.91;;;11.16;79.75
7376;BME280;3728;42.266;24.944;2024-02-21T08:08:09;100410.63;;;11.40;79.70
7376;BME280;3728;42.266;24.944;2024-02-21T08:10:36;100404.03;;;11.43;79.66
7376;BME280;3728;42.266;24.944;2024-02-21T08:13:03;100409.84;;;11.58;79.82
7376;BME280;3728;42.266;24.944;2024-02-21T08:15:30;100411.63;;;12.00;77.94
7376;BME280;3728;42.266;24.944;2024-02-21T08:18:00;100412.00;;;11.94;76.74
7376;BME280;3728;42.266;24.944;2024-02-21T08:20:28;100409.22;;;11.85;76.49
7376;BME280;3728;42.266;24.944;2024-02-21T08:22:55;100407.50;;;11.76;76.93
7376;BME280;3728;42.266;24.944;2024-02-21T08:25:22;100412.97;;;11.98;75.19
7376;BME280;3728;42.266;24.944;2024-02-21T08:27:49;100408.75;;;11.97;76.03
7376;BME280;3728;42.266;24.944;2024-02-21T08:30:18;100402.53;;;12.25;74.22
7376;BME280;3728;42.266;24.944;2024-02-21T08:32:45;100409.78;;;12.01;76.00
7376;BME280;3728;42.266;24.944;2024-02-21T08:35:12;100411.91;;;12.31;74.30
7376;BME280;3728;42.266;24.944;2024-02-21T08:37:39;100410.34;;;12.44;76.08
7376;BME280;3728;42.266;24.944;2024-02-21T08:40:07;100407.81;;;12.39;72.79
7376;BME280;3728;42.266;24.944;2024-02-21T08:42:36;100411.28;;;12.20;75.59
7376;BME280;3728;42.266;24.944;2024-02-21T08:45:03;100409.13;;;12.55;74.15
7376;BME280;3728;42.266;24.944;2024-02-21T08:47:30;100403.75;;;12.73;72.35
7376;BME280;3728;42.266;24.944;2024-02-21T08:49:58;100403.06;;;12.54;74.29
7376;BME280;3728;42.266;24.944;2024-02-21T08:52:30;100406.41;;;12.73;73.62
7376;BME280;3728;42.266;24.944;2024-02-21T08:54:57;100401.06;;;12.78;73.57
7376;BME280;3728;42.266;24.944;2024-02-21T08:57:24;100413.59;;;12.81;72.47
7376;BME280;3728;42.266;24.944;2024-02-21T08:59:51;100398.91;;;12.80;72.43
7376;BME280;3728;42.266;24.944;2024-02-21T09:02:18;100399.09;;;12.57;74.44
7376;BME280;3728;42.266;24.944;2024-02-21T09:04:45;100400.66;;;12.71;73.96
7376;BME280;3728;42.266;24.944;2024-02-21T09:07:12;100401.34;;;12.90;74.59
7376;BME280;3728;42.266;24.944;2024-02-21T09:09:39;100405.66;;;13.36;71.51
7376;BME280;3728;42.266;24.944;2024-02-21T09:12:07;100410.03;;;13.40;70.12
7376;BME280;3728;42.266;24.944;2024-02-21T09:14:37;100406.09;;;13.29;70.84
7376;BME280;3728;42.266;24.944;2024-02-21T09:17:07;100400.13;;;13.37;71.39
7376;BME280;3728;42.266;24.944;2024-02-21T09:19:35;100401.81;;;13.55;70.76
7376;BME280;3728;42.266;24.944;2024-02-21T09:22:02;100396.13;;;14.28;63.95
7376;BME280;3728;42.266;24.944;2024-02-21T09:24:30;100390.63;;;14.16;63.16
7376;BME280;3728;42.266;24.944;2024-02-21T09:26:57;100393.56;;;14.37;63.78
7376;BME280;3728;42.266;24.944;2024-02-21T09:29:24;100389.06;;;14.37;61.09
7376;BME280;3728;42.266;24.944;2024-02-21T09:31:53;100389.06;;;14.37;62.32
7376;BME280;3728;42.266;24.944;2024-02-21T09:34:20;100385.69;;;14.85;58.83
7376;BME280;3728;42.266;24.944;2024-02-21T09:36:49;100388.44;;;14.71;62.26
7376;BME280;3728;42.266;24.944;2024-02-21T09:39:16;100385.34;;;14.86;60.82
7376;BME280;3728;42.266;24.944;2024-02-21T09:41:50;100385.06;;;14.88;58.85
7376;BME280;3728;42.266;24.944;2024-02-21T09:44:22;100391.75;;;14.94;57.53
7376;BME280;3728;42.266;24.944;2024-02-21T09:47:02;100391.47;;;15.13;56.12
7376;BME280;3728;42.266;24.944;2024-02-21T09:49:35;100390.22;;;14.93;55.86
7376;BME280;3728;42.266;24.944;2024-02-21T09:52:06;100389.94;;;14.64;57.07
7376;BME280;3728;42.266;24.944;2024-02-21T09:54:34;100393.72;;;14.80;55.98
7376;BME280;3728;42.266;24.944;2024-02-21T09:57:02;100394.50;;;14.80;55.40
7376;BME280;3728;42.266;24.944;2024-02-21T09:59:31;100386.03;;;14.53;56.87
7376;BME280;3728;42.266;24.944;2024-02-21T10:01:59;100384.38;;;14.34;56.27
7376;BME280;3728;42.266;24.944;2024-02-21T10:04:30;100383.06;;;14.23;57.91
7376;BME280;3728;42.266;24.944;2024-02-21T10:06:57;100381.13;;;14.68;52.92
7376;BME280;3728;42.266;24.944;2024-02-21T10:09:26;100376.00;;;14.63;53.32
7376;BME280;3728;42.266;24.944;2024-02-21T10:12:14;100375.53;;;14.30;54.94
7376;BME280;3728;42.266;24.944;2024-02-21T10:14:44;100366.41;;;14.67;55.17
7376;BME280;3728;42.266;24.944;2024-02-21T10:17:17;100365.31;;;14.77;55.79
7376;BME280;3728;42.266;24.944;2024-02-21T10:19:49;100362.53;;;14.73;54.88
7376;BME280;3728;42.266;24.944;2024-02-21T10:22:21;100359.91;;;14.82;55.67
7376;BME280;3728;42.266;24.944;2024-02-21T10:24:48;100349.22;;;14.78;55.32
7376;BME280;3728;42.266;24.944;2024-02-21T10:27:18;100350.78;;;15.05;54.67
7376;BME280;3728;42.266;24.944;2024-02-21T10:29:49;100332.66;;;15.21;54.31
7376;BME280;3728;42.266;24.944;2024-02-21T10:32:18;100336.06;;;15.38;55.50
7376;BME280;3728;42.266;24.944;2024-02-21T10:34:45;100329.53;;;15.79;52.71
7376;BME280;3728;42.266;24.944;2024-02-21T10:37:12;100316.69;;;15.68;52.87
7376;BME280;3728;42.266;24.944;2024-02-21T10:39:41;100319.91;;;15.74;53.50
7376;BME280;3728;42.266;24.944;2024-02-21T10:42:11;100325.78;;;15.97;49.89
7376;BME280;3728;42.266;24.944;2024-02-21T10:44:40;100317.09;;;15.79;50.68
7376;BME280;3728;42.266;24.944;2024-02-21T10:47:09;100307.84;;;15.56;50.34
7376;BME280;3728;42.266;24.944;2024-02-21T10:49:41;100308.25;;;15.66;51.12
7376;BME280;3728;42.266;24.944;2024-02-21T10:52:26;100305.97;;;15.39;52.51
7376;BME280;3728;42.266;24.944;2024-02-21T10:57:25;100289.66;;;15.54;52.23
7376;BME280;3728;42.266;24.944;2024-02-21T10:59:55;100283.69;;;15.83;52.17
7376;BME280;3728;42.266;24.944;2024-02-21T11:02:26;100286.91;;;15.97;51.75
7376;BME280;3728;42.266;24.944;2024-02-21T11:04:57;100280.56;;;16.27;46.56
7376;BME280;3728;42.266;24.944;2024-02-21T11:07:25;100287.56;;;15.94;47.69
7376;BME280;3728;42.266;24.944;2024-02-21T11:09:53;100283.50;;;15.88;47.75
7376;BME280;3728;42.266;24.944;2024-02-21T11:12:23;100274.63;;;16.01;46.90
7376;BME280;3728;42.266;24.944;2024-02-21T11:14:50;100274.31;;;16.03;47.69
7376;BME280;3728;42.266;24.944;2024-02-21T11:17:20;100269.16;;;16.35;46.28
7376;BME280;3728;42.266;24.944;2024-02-21T11:19:54;100271.19;;;16.68;43.42
7376;BME280;3728;42.266;24.944;2024-02-21T11:22:21;100268.16;;;16.57;45.04
7376;BME280;3728;42.266;24.944;2024-02-21T11:24:51;100265.44;;;16.66;43.88
7376;BME280;3728;42.266;24.944;2024-02-21T11:27:21;100269.28;;;16.97;41.22
7376;BME280;3728;42.266;24.944;2024-02-21T11:29:56;100264.63;;;16.94;41.37
7376;BME280;3728;42.266;24.944;2024-02-21T11:32:26;100267.31;;;17.06;40.82
7376;BME280;3728;42.266;24.944;2024-02-21T11:35:01;100257.25;;;16.79;41.26
7376;BME280;3728;42.266;24.944;2024-02-21T11:37:35;100262.50;;;16.67;41.35
7376;BME280;3728;42.266;24.944;2024-02-21T11:40:04;100253.53;;;16.51;40.57
7376;BME280;3728;42.266;24.944;2024-02-21T11:42:34;100246.59;;;16.38;41.90
7376;BME280;3728;42.266;24.944;2024-02-21T11:45:00;100254.06;;;16.65;41.55
7376;BME280;3728;42.266;24.944;2024-02-21T11:47:28;100237.56;;;16.68;41.13
7376;BME280;3728;42.266;24.944;2024-02-21T11:49:56;100236.19;;;17.03;41.64
7376;BME280;3728;42.266;24.944;2024-02-21T11:52:24;100235.03;;;17.46;42.07
7376;BME280;3728;42.266;24.944;2024-02-21T11:54:53;100233.78;;;17.76;42.00
7376;BME280;3728;42.266;24.944;2024-02-21T11:57:22;100227.84;;;18.03;40.34
7376;BME280;3728;42.266;24.944;2024-02-21T11:59:51;100231.38;;;18.56;38.47
7376;BME280;3728;42.266;24.944;2024-02-21T12:02:26;100234.06;;;18.71;38.10
7376;BME280;3728;42.266;24.944;2024-02-21T12:04:54;100231.03;;;18.33;39.00
7376;BME280;3728;42.266;24.944;2024-02-21T12:07:22;100221.00;;;18.78;37.33
7376;BME280;3728;42.266;24.944;2024-02-21T12:09:51;100225.69;;;18.45;37.48
7376;BME280;3728;42.266;24.944;2024-02-21T12:12:20;100229.59;;;18.35;37.22
7376;BME280;3728;42.266;24.944;2024-02-21T12:14:55;100218.38;;;18.66;36.48
7376;BME280;3728;42.266;24.944;2024-02-21T12:17:22;100218.78;;;19.08;36.77
7376;BME280;3728;42.266;24.944;2024-02-21T12:19:50;100216.06;;;19.48;35.96
7376;BME280;3728;42.266;24.944;2024-02-21T12:22:21;100216.91;;;20.14;33.52
7376;BME280;3728;42.266;24.944;2024-02-21T12:24:48;100216.13;;;20.29;33.35
7376;BME280;3728;42.266;24.944;2024-02-21T12:27:15;100212.28;;;19.96;35.24
7376;BME280;3728;42.266;24.944;2024-02-21T12:29:43;100211.78;;;19.74;33.76
7376;BME280;3728;42.266;24.944;2024-02-21T12:32:10;100204.59;;;19.16;35.23
7376;BME280;3728;42.266;24.944;2024-02-21T12:34:37;100198.72;;;18.95;36.31
7376;BME280;3728;42.266;24.944;2024-02-21T12:37:19;100194.91;;;18.28;37.35
7376;BME280;3728;42.266;24.944;2024-02-21T12:39:47;100192.25;;;18.28;37.86
7376;BME280;3728;42.266;24.944;2024-02-21T12:42:15;100188.31;;;17.98;37.49
7376;BME280;3728;42.266;24.944;2024-02-21T12:44:42;100186.53;;;18.02;38.44
7376;BME280;3728;42.266;24.944;2024-02-21T12:47:10;100180.41;;;18.38;37.15
7376;BME280;3728;42.266;24.944;2024-02-21T12:49:37;100175.50;;;17.88;38.32
7376;BME280;3728;42.266;24.944;2024-02-21T12:52:10;100169.31;;;17.72;38.38
7376;BME280;3728;42.266;24.944;2024-02-21T12:54:38;100176.09;;;17.49;38.71
7376;BME280;3728;42.266;24.944;2024-02-21T12:57:05;100167.88;;;17.62;38.04
7376;BME280;3728;42.266;24.944;2024-02-21T12:59:32;100164.13;;;17.19;39.75
7376;BME280;3728;42.266;24.944;2024-02-21T13:01:59;100175.00;;;17.38;38.87
7376;BME280;3728;42.266;24.944;2024-02-21T13:04:29;100159.22;;;16.96;38.72
7376;BME280;3728;42.266;24.944;2024-02-21T13:06:56;100161.44;;;16.74;40.30
7376;BME280;3728;42.266;24.944;2024-02-21T13:09:23;100159.25;;;17.08;38.88